BGA1212 LDDU-LOWI
Flight info
| Callsign | BGA1212 |
|---|---|
| Flight time | N/A |
| Altitude | 30000 |
| Route | AMUGO DCT ALIVO DCT VEKEN DCT NANIT NANIT2A |
| Aircraft | A3ST/H-SDFGHIRWY/LB1 |
Departure
| Time | 2025-10-26 12:56 |
|---|---|
| Airport | Dubrovnik Ruđer Bošković Airport (LDDU) |
Arrival
| Time | N/A |
|---|---|
| Airport | Innsbruck Airport (LOWI) |
| Time | Latitude | Longitude | Altitude | Speed | Heading |
|---|---|---|---|---|---|
| 2025-10-26 12:24 | 42.55886 | 18.26875 | 520 ft | 0 kts | 207° |
| 2025-10-26 12:46 | 42.55894 | 18.26882 | 520 ft | 2 kts | 222° |
| 2025-10-26 12:47 | 42.55906 | 18.26918 | 521 ft | 2 kts | 269° |
| 2025-10-26 12:47 | 42.55904 | 18.26938 | 520 ft | 2 kts | 292° |
| 2025-10-26 12:48 | 42.55889 | 18.26973 | 520 ft | 1 kts | 298° |
| 2025-10-26 12:48 | 42.55888 | 18.26976 | 520 ft | 0 kts | 298° |
| 2025-10-26 12:50 | 42.56019 | 18.26647 | 523 ft | 26 kts | 300° |
| 2025-10-26 12:50 | 42.56206 | 18.26175 | 530 ft | 22 kts | 300° |
| 2025-10-26 12:51 | 42.56361 | 18.25781 | 532 ft | 22 kts | 302° |
| 2025-10-26 12:51 | 42.56413 | 18.25655 | 532 ft | 13 kts | 296° |
| 2025-10-26 12:52 | 42.56504 | 18.25562 | 530 ft | 1 kts | 37° |
| 2025-10-26 12:52 | 42.56532 | 18.25610 | 530 ft | 12 kts | 58° |
| 2025-10-26 12:53 | 42.56554 | 18.25752 | 532 ft | 16 kts | 106° |
| 2025-10-26 12:53 | 42.56543 | 18.25791 | 532 ft | 0 kts | 123° |
| 2025-10-26 12:55 | 42.56434 | 18.26059 | 532 ft | 74 kts | 120° |
| 2025-10-26 12:55 | 42.55536 | 18.28351 | 1235 ft | 158 kts | 120° |
| 2025-10-26 12:56 | 42.54431 | 18.31092 | 2393 ft | 188 kts | 125° |
| 2025-10-26 12:56 | 42.52737 | 18.34259 | 3136 ft | 224 kts | 155° |
| 2025-10-26 12:57 | 42.49726 | 18.33715 | 4396 ft | 246 kts | 220° |
| 2025-10-26 12:57 | 42.47004 | 18.31403 | 7105 ft | 230 kts | 209° |
| 2025-10-26 12:58 | 42.43869 | 18.29731 | 8593 ft | 263 kts | 203° |
| 2025-10-26 12:58 | 42.40238 | 18.25026 | 10837 ft | 277 kts | 265° |
| 2025-10-26 12:59 | 42.40242 | 18.23147 | 11311 ft | 286 kts | 273° |
| 2025-10-26 12:59 | 42.41012 | 18.17448 | 13403 ft | 289 kts | 282° |
| 2025-10-26 13:00 | 42.42099 | 18.12228 | 15196 ft | 293 kts | 284° |
| 2025-10-26 13:00 | 42.43300 | 18.06897 | 16839 ft | 298 kts | 284° |
| 2025-10-26 13:01 | 42.44537 | 18.01542 | 18327 ft | 304 kts | 284° |
| 2025-10-26 13:01 | 42.45806 | 17.96061 | 19749 ft | 309 kts | 284° |
| 2025-10-26 13:02 | 42.47081 | 17.90538 | 21070 ft | 315 kts | 284° |
| 2025-10-26 13:02 | 42.49024 | 17.82094 | 22851 ft | 323 kts | 283° |
| 2025-10-26 13:03 | 42.50344 | 17.76346 | 23951 ft | 330 kts | 283° |
| 2025-10-26 13:03 | 42.51029 | 17.73356 | 24485 ft | 335 kts | 283° |
| 2025-10-26 13:05 | 42.56579 | 17.56244 | 27528 ft | 375 kts | 315° |
| 2025-10-26 13:07 | 42.74340 | 17.40444 | 28676 ft | 413 kts | 318° |
| 2025-10-26 13:08 | 42.91865 | 17.24582 | 29730 ft | 347 kts | 315° |
| 2025-10-26 13:10 | 43.08042 | 17.09769 | 29753 ft | 361 kts | 315° |
| 2025-10-26 13:13 | 43.26728 | 16.92610 | 29737 ft | 357 kts | 315° |
| 2025-10-26 13:15 | 43.42598 | 16.77890 | 29755 ft | 359 kts | 314° |
| 2025-10-26 13:17 | 43.58241 | 16.63309 | 29748 ft | 335 kts | 314° |
| 2025-10-26 13:19 | 43.73634 | 16.48864 | 29748 ft | 338 kts | 314° |
| 2025-10-26 13:21 | 43.89066 | 16.34299 | 29777 ft | 336 kts | 313° |
| 2025-10-26 13:23 | 44.04229 | 16.19882 | 29782 ft | 335 kts | 313° |
| 2025-10-26 13:25 | 44.19149 | 16.05621 | 29760 ft | 332 kts | 312° |
| 2025-10-26 13:27 | 44.34043 | 15.91294 | 29758 ft | 337 kts | 312° |
| 2025-10-26 13:28 | 44.47334 | 15.78432 | 29763 ft | 333 kts | 312° |
| 2025-10-26 13:31 | 44.64156 | 15.62048 | 29747 ft | 344 kts | 312° |
| 2025-10-26 13:32 | 44.77353 | 15.49131 | 29716 ft | 346 kts | 311° |
| 2025-10-26 13:35 | 44.94992 | 15.31710 | 29766 ft | 345 kts | 311° |
| 2025-10-26 13:36 | 45.08701 | 15.18079 | 29756 ft | 350 kts | 310° |
| 2025-10-26 13:39 | 45.26245 | 15.00528 | 29732 ft | 350 kts | 311° |
| 2025-10-26 13:40 | 45.39551 | 14.87136 | 29719 ft | 341 kts | 310° |
| 2025-10-26 13:43 | 45.56079 | 14.69203 | 29726 ft | 332 kts | 304° |
| 2025-10-26 13:44 | 45.68068 | 14.53846 | 29722 ft | 333 kts | 304° |
| 2025-10-26 13:47 | 45.83357 | 14.34169 | 29732 ft | 334 kts | 304° |
| 2025-10-26 13:48 | 45.95223 | 14.18788 | 29739 ft | 329 kts | 303° |
| 2025-10-26 13:51 | 46.10210 | 13.99258 | 29740 ft | 327 kts | 304° |
| 2025-10-26 13:52 | 46.21678 | 13.84201 | 29710 ft | 328 kts | 303° |
| 2025-10-26 13:55 | 46.35527 | 13.65889 | 29710 ft | 338 kts | 304° |
| 2025-10-26 13:56 | 46.47298 | 13.50232 | 29707 ft | 341 kts | 305° |
| 2025-10-26 13:59 | 46.59627 | 13.34006 | 29708 ft | 345 kts | 307° |
| 2025-10-26 14:00 | 46.69601 | 13.21752 | 28972 ft | 351 kts | 309° |